Etusivu
METAR-TAF:

METAR-TAF

Lentoasemat :

Stewart, Brittiläinen Kolumbia, Kanada

Leveyspiiri: 55-56N, Pituuspiiri: 129-59W, korkeus merenpinnasta: 7 m

Tämänhetkinen sää

Tämä raportti tehtiin 1 tunti ja 29 minuuttia sitten, kello 01.00 UTC
Tuuli 2 kn eri suunnista
Lämpötila 5°C
Kosteus 100%
Ilmanpaine 1014 hPa
Näkyvyys: 9.7 km
Hajonneita pilviä 1200 ft:n korkeudessa
Pilvistä 5000 ft:n korkeudessa
heikkoa sadetta, utua

METAR: CZST 190100Z VRB02KT 6SM -RA BR BKN012 OVC050 05/05 A2995 RMK SC5SC3 LAST STFD OBS/NEXT 191500Z/ SLP142

Aika: 18:29 (02:29 UTC)


TAF: puuttuu

Säähavainnot ja -ennusteet yli 4000 lentoasemalta (METAR- ja TAF-raportit).

Käytössä olevat sääasemat on merkitty karttaan keltaisilla ja punaisilla pisteillä.

Aseta hiiri pisteen päälle nähdäksesi sääaseman nimen.

Klikkaa sitten nähdäksesi säähavainnot ja -ennusteet.

Kartan vaihtaminen: klikkaa mustalla rastilla varustettuja vihreitä pisteitä, niin voit zoomata sisään; viivalla varustettua vihreää pistettä, niin voit zoomata ulos tai vihreitä nuolia, niin pääset viereisille kartoille.


METAR-TAF: